Airfield :
LOGIN :

Register | Disclaimer

   EN    FR    IT 

 










Legend :    VFR   Marginal VFR   IFR   Intensive IFR   Very Intensive IFR
Visi :
Ceiling :
>= 8 km
>= 3000ft
5 to 8 km
1000 to 3000 ft
1500m to 5 km
500 to 1000 ft
800 to 1500m
200 to 500 ft
< 800m
< 200 ft
Symbols :   Thunderstorms  Fog  Heavy snow  Heavy precipitations  Wind > 20 kt
SIGMETs :     Misc.  Thunderstorms  Icing  Turbulence  Mountain Waves  Volcanic Ashes







- Airport Elevation : 2595 ft
- IATA code : SLM


LESA - Salamanca Matacan

CURRENT METAR :
  • 181530Z 00000KT CAVOK 15/03 Q1022

EXPIRED METARs :
  • 181500Z 00000KT CAVOK 14/04 Q1022
  • 181430Z 00000KT CAVOK 14/03 Q1022
  • 181400Z VRB01KT CAVOK 13/02 Q1023
  • 181330Z 00000KT CAVOK 13/02 Q1023
  • 181300Z 00000KT CAVOK 12/03 Q1024

TAF TAF LESA
Valid from the 18 at 12:00 until the 19 at 12:00 UTC


181100Z 1812/1912 VRB05KT CAVOK TX13/1815Z TNM01/1906Z
PROB40
TEMPO 1902/1910 3000 BR BKN007
PROB30
TEMPO 1905/1908 0800 FZFG VV001
No reported NOTAMs for that airfield.



MET'MAP, your aeronautical weather chart ! - Copyright ORBIFLY December 2007 - Disclaimer

ORBIFLY MET'MAP TEAM :

Programming & Development : Alexandra Zaïnal
Concept & Development : Baudouin d'Aumeries
Co-Development & Prog : Marc-Olivier Méhu
Technical & hardware support : Manuel Goepfert

Contact : metmap@orbifly.com




SOURCES & CREDITS :

   NOAA